Station: ELLX - 06/02/2023 01:50Z (il y a 21 minutes)
ELLX 060150Z AUTO 02011KT 9999 OVC021/// 03/00 Q1038 NOSIG
Vent du 020º - 11 kt
Visibilité > 10 km
Ciel couvert à 2100 pieds
Température: +03ºC - Point de rosée: +00ºC - QNH: 1038 hPa
Pas de changement significatif prévu dans les 2 heures qui suivent l'observation